createdAt,value
2023-02-05T00:00:18.926Z,19.85
2023-02-05T00:02:48.248Z,19.25
2023-02-05T00:05:16.007Z,20.50
2023-02-05T00:07:43.967Z,19.17
2023-02-05T00:10:11.584Z,19.80
2023-02-05T00:12:39.618Z,19.35
2023-02-05T00:15:07.670Z,20.30
2023-02-05T00:17:36.739Z,19.55
2023-02-05T00:20:05.854Z,19.23
2023-02-05T00:22:33.445Z,20.17
2023-02-05T00:25:01.120Z,19.40
2023-02-05T00:27:28.877Z,19.35
2023-02-05T00:29:56.731Z,18.42
2023-02-05T00:32:24.303Z,18.45
2023-02-05T00:34:52.015Z,18.35
2023-02-05T00:37:20.291Z,19.48
2023-02-05T00:39:48.099Z,19.00
2023-02-05T00:42:15.588Z,19.70
2023-02-05T00:44:43.462Z,18.77
2023-02-05T00:47:11.061Z,19.17
2023-02-05T00:49:39.610Z,19.52
2023-02-05T00:52:07.207Z,18.45
2023-02-05T00:54:35.293Z,18.88
2023-02-05T00:57:02.969Z,20.38
2023-02-05T00:59:30.685Z,20.52
2023-02-05T01:01:58.421Z,20.50
2023-02-05T01:04:25.992Z,21.17
2023-02-05T01:06:53.603Z,21.05
2023-02-05T01:09:22.580Z,20.70
2023-02-05T01:11:50.125Z,21.33
2023-02-05T01:14:17.773Z,21.40
2023-02-05T01:16:45.664Z,23.40
2023-02-05T01:19:13.536Z,22.85
2023-02-05T01:21:41.412Z,23.88
2023-02-05T01:24:09.181Z,24.33
2023-02-05T01:26:36.788Z,27.35
2023-02-05T01:29:04.640Z,27.23
2023-02-05T01:31:33.584Z,27.77
2023-02-05T01:34:01.824Z,27.90
2023-02-05T01:36:29.652Z,28.98
2023-02-05T01:38:57.227Z,28.70
2023-02-05T01:41:25.012Z,29.60
2023-02-05T01:44:12.105Z,31.67
2023-02-05T01:46:41.439Z,30.02
2023-02-05T01:49:12.839Z,32.72
2023-02-05T01:51:40.733Z,32.50
2023-02-05T01:54:08.985Z,31.05
2023-02-05T01:56:41.238Z,32.35
2023-02-05T01:59:17.929Z,33.20
2023-02-05T02:01:46.927Z,30.90
2023-02-05T02:04:17.266Z,31.52
2023-02-05T02:06:45.493Z,30.17
2023-02-05T02:09:13.549Z,31.40
2023-02-05T02:11:41.932Z,28.35
2023-02-05T02:14:11.249Z,29.77
2023-02-05T02:16:39.011Z,29.73
2023-02-05T02:19:10.869Z,27.50
2023-02-05T02:22:13.197Z,24.75
2023-02-05T02:24:49.487Z,23.65
2023-02-05T02:27:36.183Z,21.88
2023-02-05T02:30:19.367Z,21.35
2023-02-05T02:33:15.073Z,19.65
2023-02-05T02:35:58.194Z,18.92
2023-02-05T02:38:34.557Z,19.40
2023-02-05T02:41:10.534Z,19.17
2023-02-05T02:43:48.938Z,19.48
2023-02-05T02:46:44.610Z,16.27
2023-02-05T02:49:19.171Z,18.42
2023-02-05T02:51:47.014Z,18.63
2023-02-05T02:54:15.966Z,17.42
2023-02-05T02:56:43.735Z,17.77
2023-02-05T02:59:14.120Z,17.63
2023-02-05T03:01:52.340Z,17.25
2023-02-05T03:04:28.016Z,16.33
2023-02-05T03:06:58.148Z,16.70
2023-02-05T03:09:32.785Z,16.23
2023-02-05T03:12:01.952Z,16.30
2023-02-05T03:14:30.938Z,14.98
2023-02-05T03:17:00.630Z,15.85
2023-02-05T03:19:32.487Z,16.70
2023-02-05T03:22:03.011Z,15.90
2023-02-05T03:24:31.730Z,16.55
2023-02-05T03:26:59.746Z,15.60
2023-02-05T03:29:31.219Z,16.52
2023-02-05T03:32:21.382Z,15.18
2023-02-05T03:35:05.252Z,15.57
2023-02-05T03:37:52.764Z,16.08
2023-02-05T03:40:51.865Z,15.18
2023-02-05T03:43:25.710Z,14.20
2023-02-05T03:46:29.535Z,14.55
2023-02-05T03:49:14.814Z,15.88
2023-02-05T03:52:10.086Z,14.82
2023-02-05T03:54:50.612Z,15.75
2023-02-05T03:57:33.067Z,15.65
2023-02-05T04:00:01.391Z,15.60
2023-02-05T04:02:30.240Z,17.35
2023-02-05T04:04:58.191Z,15.43
2023-02-05T04:07:26.052Z,15.52
2023-02-05T04:09:53.728Z,14.88
2023-02-05T04:12:22.958Z,14.98
2023-02-05T04:14:50.539Z,15.63
2023-02-05T04:17:18.302Z,16.60
2023-02-05T04:19:46.959Z,16.42
2023-02-05T04:22:15.880Z,16.80
2023-02-05T04:24:49.762Z,17.73
2023-02-05T04:27:18.080Z,16.33
2023-02-05T04:29:45.654Z,15.52
2023-02-05T04:32:13.515Z,19.55
2023-02-05T04:34:41.213Z,25.02
2023-02-05T04:37:11.666Z,29.73
2023-02-05T04:39:40.786Z,32.58
2023-02-05T04:42:08.549Z,36.88
2023-02-05T04:44:36.333Z,39.53
2023-02-05T04:47:04.237Z,30.85
2023-02-05T04:49:33.537Z,26.13
2023-02-05T04:52:01.147Z,24.90
2023-02-05T04:54:28.988Z,32.50
2023-02-05T04:56:56.674Z,33.35
2023-02-05T04:59:24.397Z,25.88
2023-02-05T05:01:52.030Z,25.80
2023-02-05T05:04:19.597Z,22.85
2023-02-05T05:06:47.363Z,23.13
2023-02-05T05:09:15.065Z,23.63
2023-02-05T05:11:43.201Z,24.92
2023-02-05T05:14:10.852Z,25.90
2023-02-05T05:16:38.416Z,21.83
2023-02-05T05:19:06.236Z,18.73
2023-02-05T05:21:33.810Z,19.65
2023-02-05T05:24:01.589Z,18.90
2023-02-05T05:26:30.223Z,17.92
2023-02-05T05:28:57.890Z,16.65
2023-02-05T05:31:25.595Z,17.75
2023-02-05T05:33:53.424Z,18.20
2023-02-05T05:36:21.012Z,17.88
2023-02-05T05:38:48.594Z,18.33
2023-02-05T05:41:43.796Z,18.15
2023-02-05T05:44:11.459Z,17.95
2023-02-05T05:46:40.949Z,18.48
2023-02-05T05:49:08.557Z,19.27
2023-02-05T05:51:36.108Z,18.33
2023-02-05T05:54:04.300Z,19.90
2023-02-05T05:56:31.868Z,19.55
2023-02-05T05:58:59.387Z,18.35
2023-02-05T06:01:26.951Z,18.73
2023-02-05T06:03:54.530Z,18.92
2023-02-05T06:06:22.100Z,18.48
2023-02-05T06:08:49.960Z,18.83
2023-02-05T06:11:17.745Z,18.67
2023-02-05T06:13:45.624Z,20.63
2023-02-05T06:16:13.706Z,19.77
2023-02-05T06:18:42.261Z,17.80
2023-02-05T06:21:10.903Z,16.88
2023-02-05T06:23:39.326Z,16.83
2023-02-05T06:26:07.020Z,16.67
2023-02-05T06:28:35.064Z,18.00
2023-02-05T06:31:03.499Z,17.98
2023-02-05T06:33:31.377Z,19.23
2023-02-05T06:35:58.945Z,23.75
2023-02-05T06:38:26.733Z,24.25
2023-02-05T06:40:54.405Z,19.63
2023-02-05T06:43:22.129Z,15.82
2023-02-05T06:45:49.691Z,15.15
2023-02-05T06:48:18.346Z,15.38
2023-02-05T06:50:46.393Z,16.50
2023-02-05T06:53:14.172Z,15.95
2023-02-05T06:55:41.754Z,14.82
2023-02-05T06:58:09.421Z,15.23
2023-02-05T07:00:37.233Z,15.30
2023-02-05T07:03:05.008Z,15.57
2023-02-05T07:05:35.004Z,17.45
2023-02-05T07:08:04.317Z,19.75
2023-02-05T07:10:32.323Z,15.02
2023-02-05T07:12:59.959Z,15.90
2023-02-05T07:15:27.460Z,18.90
2023-02-05T07:17:55.500Z,23.33
2023-02-05T07:20:23.529Z,20.80
2023-02-05T07:22:51.143Z,13.48
2023-02-05T07:25:18.729Z,14.77
2023-02-05T07:27:46.561Z,14.00
2023-02-05T07:30:15.093Z,14.00
2023-02-05T07:32:42.691Z,16.55
2023-02-05T07:35:10.230Z,16.40
2023-02-05T07:37:39.601Z,23.73
2023-02-05T07:40:08.031Z,26.52
2023-02-05T07:42:35.841Z,21.33
2023-02-05T07:45:04.979Z,17.42
2023-02-05T07:47:32.845Z,16.10
2023-02-05T07:50:00.565Z,18.05
2023-02-05T07:52:28.455Z,16.55
2023-02-05T07:54:55.975Z,14.38
2023-02-05T07:57:23.897Z,14.45
2023-02-05T07:59:52.656Z,13.95
2023-02-05T08:02:20.729Z,12.98
2023-02-05T08:04:48.271Z,16.35
2023-02-05T08:07:16.167Z,14.35
2023-02-05T08:09:47.686Z,16.60
2023-02-05T08:12:15.791Z,14.30
2023-02-05T08:14:43.545Z,15.13
2023-02-05T08:17:11.138Z,15.88
2023-02-05T08:19:39.066Z,16.40
2023-02-05T08:22:06.845Z,14.40
2023-02-05T08:24:34.412Z,15.43
2023-02-05T08:27:02.327Z,14.52
2023-02-05T08:29:30.189Z,13.65
2023-02-05T08:31:57.944Z,15.85
2023-02-05T08:34:25.581Z,15.82
2023-02-05T08:36:53.280Z,14.82
2023-02-05T08:39:20.987Z,11.90
2023-02-05T08:41:48.679Z,12.18
2023-02-05T08:44:16.278Z,13.32
2023-02-05T08:46:50.127Z,15.75
2023-02-05T08:49:18.536Z,13.07
2023-02-05T08:51:46.467Z,16.42
2023-02-05T08:54:15.374Z,10.00
2023-02-05T08:56:43.882Z,10.48
2023-02-05T08:59:12.373Z,14.73
2023-02-05T09:01:43.244Z,13.20
2023-02-05T09:04:17.943Z,11.40
2023-02-05T09:06:45.551Z,15.07
2023-02-05T09:09:13.486Z,12.88
2023-02-05T09:11:41.743Z,13.68
2023-02-05T09:14:10.026Z,14.30
2023-02-05T09:16:38.223Z,16.15
2023-02-05T09:19:05.955Z,11.57
2023-02-05T09:21:35.672Z,11.70
2023-02-05T09:24:03.963Z,12.43
2023-02-05T09:26:31.614Z,12.60
2023-02-05T09:28:59.481Z,13.38
2023-02-05T09:31:27.180Z,13.40
2023-02-05T09:33:56.002Z,11.82
2023-02-05T09:36:23.839Z,13.48
2023-02-05T09:39:02.001Z,15.18
2023-02-05T09:44:25.143Z,17.13
2023-02-05T09:46:52.672Z,13.05
2023-02-05T09:49:38.691Z,13.30
2023-02-05T09:52:21.894Z,14.18
2023-02-05T09:54:52.446Z,16.67
2023-02-05T09:57:49.358Z,13.57
2023-02-05T10:00:29.503Z,11.88
2023-02-05T10:02:59.097Z,9.95
2023-02-05T10:05:26.923Z,25.00
2023-02-05T10:08:07.127Z,13.55
2023-02-05T10:10:39.659Z,18.95
2023-02-05T10:13:27.837Z,12.63
2023-02-05T10:16:04.750Z,10.95
2023-02-05T10:19:01.104Z,11.18
2023-02-05T10:21:52.069Z,12.63
2023-02-05T10:24:38.508Z,14.75
2023-02-05T10:27:13.950Z,10.00
2023-02-05T10:29:53.957Z,12.77
2023-02-05T10:32:25.868Z,11.18
2023-02-05T10:35:01.604Z,12.00
2023-02-05T10:37:45.133Z,12.27
2023-02-05T10:40:18.404Z,12.93
2023-02-05T10:43:27.309Z,14.80
2023-02-05T10:45:54.912Z,13.70
2023-02-05T10:48:24.472Z,12.95
2023-02-05T10:51:01.408Z,11.70
2023-02-05T10:53:29.416Z,12.15
2023-02-05T10:55:57.833Z,11.93
2023-02-05T10:58:39.213Z,13.88
2023-02-05T11:01:27.711Z,11.90
2023-02-05T11:04:00.311Z,13.57
2023-02-05T11:06:29.837Z,16.02
2023-02-05T11:08:57.750Z,14.43
2023-02-05T11:11:28.511Z,13.10
2023-02-05T11:14:00.893Z,13.48
2023-02-05T11:16:48.756Z,13.80
2023-02-05T11:19:23.239Z,12.80
2023-02-05T11:21:55.779Z,10.68
2023-02-05T11:24:28.733Z,11.27
2023-02-05T11:27:18.135Z,8.65
2023-02-05T11:29:45.897Z,8.40
2023-02-05T11:32:38.089Z,12.80
2023-02-05T11:35:25.371Z,12.27
2023-02-05T11:38:10.407Z,14.05
2023-02-05T11:40:38.212Z,12.25
2023-02-05T11:43:25.134Z,12.25
2023-02-05T11:45:53.120Z,9.93
2023-02-05T11:48:44.962Z,10.48
2023-02-05T11:51:15.390Z,10.05
2023-02-05T11:53:51.003Z,9.77
2023-02-05T11:56:22.820Z,10.18
2023-02-05T11:59:05.163Z,10.07
2023-02-05T12:01:34.229Z,9.15
2023-02-05T12:04:17.194Z,11.02
2023-02-05T12:06:53.626Z,10.75
2023-02-05T12:09:23.366Z,10.43
2023-02-05T12:12:11.849Z,10.20
2023-02-05T12:15:10.280Z,9.55
2023-02-05T12:17:50.865Z,8.38
2023-02-05T12:20:23.064Z,10.60
2023-02-05T12:23:23.731Z,10.48
2023-02-05T12:25:58.515Z,10.67
2023-02-05T12:28:42.766Z,9.60
2023-02-05T12:31:19.938Z,9.45
2023-02-05T12:34:02.517Z,11.05
2023-02-05T12:36:46.280Z,9.80
2023-02-05T12:39:33.690Z,10.63
2023-02-05T12:42:26.498Z,11.05
2023-02-05T12:44:57.743Z,10.75
2023-02-05T12:47:38.577Z,9.57
2023-02-05T12:50:19.403Z,11.60
2023-02-05T12:53:24.569Z,8.90
2023-02-05T12:56:11.092Z,10.90
2023-02-05T12:59:10.764Z,12.02
2023-02-05T13:02:11.248Z,11.80
2023-02-05T13:04:40.700Z,12.73
2023-02-05T13:07:18.345Z,13.95
2023-02-05T13:09:49.271Z,13.63
2023-02-05T13:12:19.063Z,11.63
2023-02-05T13:15:00.574Z,14.57
2023-02-05T13:17:29.541Z,16.23
2023-02-05T13:19:58.470Z,15.68
2023-02-05T13:22:45.046Z,14.68
2023-02-05T13:25:59.583Z,16.48
2023-02-05T13:28:42.781Z,16.33
2023-02-05T13:31:32.019Z,18.30
2023-02-05T13:34:07.009Z,18.83
2023-02-05T13:36:57.634Z,16.48
2023-02-05T13:39:47.531Z,17.27
2023-02-05T13:42:35.845Z,18.88
2023-02-05T13:45:37.956Z,19.30
2023-02-05T13:48:10.410Z,17.23
2023-02-05T13:50:41.622Z,14.50
2023-02-05T13:53:44.064Z,12.20
2023-02-05T13:56:24.557Z,14.02
2023-02-05T13:58:56.706Z,9.80
2023-02-05T14:01:29.844Z,11.93
2023-02-05T14:04:07.299Z,10.57
2023-02-05T14:06:39.106Z,11.57
2023-02-05T14:09:25.149Z,12.07
2023-02-05T14:11:57.610Z,13.02
2023-02-05T14:14:29.189Z,12.27
2023-02-05T14:16:59.256Z,13.57
2023-02-05T14:19:46.253Z,11.52
2023-02-05T14:22:35.338Z,14.23
2023-02-05T14:25:03.021Z,14.90
2023-02-05T14:27:31.442Z,14.10
2023-02-05T14:29:59.719Z,15.05
2023-02-05T14:32:27.423Z,15.60
2023-02-05T14:35:02.300Z,17.70
2023-02-05T14:37:40.903Z,18.73
2023-02-05T14:40:38.004Z,18.80
2023-02-05T14:43:22.768Z,24.00
2023-02-05T14:45:51.428Z,19.48
2023-02-05T14:48:27.165Z,21.15
2023-02-05T14:51:31.664Z,21.17
2023-02-05T14:54:07.199Z,19.40
2023-02-05T14:56:37.618Z,20.55
2023-02-05T14:59:17.877Z,17.13
2023-02-05T15:01:46.838Z,18.33
2023-02-05T15:04:40.749Z,15.52
2023-02-05T15:07:14.478Z,16.13
2023-02-05T15:09:46.302Z,16.85
2023-02-05T15:12:34.334Z,16.08
2023-02-05T15:15:27.883Z,13.63
2023-02-05T15:17:58.243Z,12.07
2023-02-05T15:20:27.899Z,15.13
2023-02-05T15:23:05.382Z,17.02
2023-02-05T15:25:42.681Z,18.27
2023-02-05T15:28:20.579Z,14.13
2023-02-05T15:31:05.854Z,14.82
2023-02-05T15:33:40.250Z,18.10
2023-02-05T15:36:13.293Z,16.55
2023-02-05T15:39:02.846Z,14.00
2023-02-05T15:41:31.027Z,13.25
2023-02-05T15:44:02.710Z,13.45
2023-02-05T15:46:32.784Z,15.63
2023-02-05T15:49:00.474Z,16.02
2023-02-05T15:51:34.508Z,16.67
2023-02-05T15:54:03.390Z,15.52
2023-02-05T15:56:39.558Z,14.25
2023-02-05T15:59:10.271Z,14.60
2023-02-05T16:01:49.448Z,16.83
2023-02-05T16:04:23.058Z,15.63
2023-02-05T16:06:55.271Z,16.20
2023-02-05T16:09:25.190Z,15.95
2023-02-05T16:11:54.223Z,11.73
2023-02-05T16:14:28.808Z,14.20
2023-02-05T16:17:07.923Z,15.57
2023-02-05T16:19:46.430Z,16.75
2023-02-05T16:22:36.209Z,16.80
2023-02-05T16:25:07.325Z,15.25
2023-02-05T16:30:08.123Z,14.40
2023-02-05T16:32:40.008Z,15.93
2023-02-05T16:35:12.986Z,15.85
2023-02-05T16:37:40.699Z,12.73
2023-02-05T16:40:09.843Z,15.35
2023-02-05T16:42:43.360Z,17.63
2023-02-05T16:45:11.056Z,15.60
2023-02-05T16:47:39.283Z,14.10
2023-02-05T16:50:37.484Z,15.27
2023-02-05T16:53:16.915Z,15.02
2023-02-05T16:55:44.587Z,10.95
2023-02-05T16:58:22.347Z,15.18
2023-02-05T17:01:00.952Z,13.52
2023-02-05T17:03:31.279Z,14.32
2023-02-05T17:06:00.709Z,12.20
2023-02-05T17:08:33.535Z,15.35
2023-02-05T17:11:06.785Z,13.80
2023-02-05T17:13:42.571Z,9.93
2023-02-05T17:16:29.971Z,13.68
2023-02-05T17:19:25.482Z,10.32
2023-02-05T17:22:27.721Z,13.30
2023-02-05T17:24:55.488Z,14.20
2023-02-05T17:27:30.643Z,14.40
2023-02-05T17:29:58.922Z,11.27
2023-02-05T17:32:26.565Z,11.88
2023-02-05T17:34:54.539Z,13.32
2023-02-05T17:37:22.117Z,11.65
2023-02-05T17:39:51.696Z,16.38
2023-02-05T17:42:23.959Z,15.05
2023-02-05T17:44:51.878Z,12.35
2023-02-05T17:47:20.278Z,15.25
2023-02-05T17:49:48.015Z,16.30
2023-02-05T17:52:15.828Z,14.98
2023-02-05T17:54:46.338Z,15.40
2023-02-05T17:57:21.382Z,15.75
2023-02-05T17:59:49.626Z,14.38
2023-02-05T18:02:17.581Z,12.23
2023-02-05T18:04:46.493Z,13.18
2023-02-05T18:07:40.149Z,14.93
2023-02-05T18:10:12.834Z,12.57
2023-02-05T18:12:40.490Z,13.27
2023-02-05T18:15:08.744Z,13.65
2023-02-05T18:17:37.544Z,17.40
2023-02-05T18:20:06.045Z,13.93
2023-02-05T18:22:34.443Z,14.27
2023-02-05T18:25:02.378Z,11.63
2023-02-05T18:27:30.971Z,14.82
2023-02-05T18:29:58.655Z,15.15
2023-02-05T18:32:26.408Z,14.93
2023-02-05T18:34:54.202Z,13.70
2023-02-05T18:37:22.419Z,14.02
2023-02-05T18:39:50.960Z,14.48
2023-02-05T18:42:19.768Z,14.88
2023-02-05T18:44:51.238Z,14.40
2023-02-05T18:47:27.640Z,15.75
2023-02-05T18:49:55.305Z,13.77
2023-02-05T18:52:26.700Z,15.77
2023-02-05T18:54:54.369Z,14.25
2023-02-05T18:57:22.327Z,16.77
2023-02-05T18:59:50.319Z,14.38
2023-02-05T19:02:17.916Z,13.85
2023-02-05T19:04:45.822Z,14.98
2023-02-05T19:07:13.617Z,14.20
2023-02-05T19:09:41.210Z,16.05
2023-02-05T19:12:08.703Z,16.35
2023-02-05T19:14:36.826Z,17.75
2023-02-05T19:17:07.245Z,15.10
2023-02-05T19:19:35.328Z,18.65
2023-02-05T19:22:05.457Z,16.65
2023-02-05T19:24:33.752Z,15.85
2023-02-05T19:27:01.908Z,17.25
2023-02-05T19:29:29.947Z,15.88
2023-02-05T19:31:58.766Z,14.30
2023-02-05T19:34:27.925Z,16.80
2023-02-05T19:36:58.583Z,18.13
2023-02-05T19:39:26.394Z,20.40
2023-02-05T19:41:54.134Z,15.27
2023-02-05T19:44:22.868Z,21.08
2023-02-05T19:46:54.185Z,18.45
2023-02-05T19:49:22.082Z,18.48
2023-02-05T19:51:55.250Z,17.30
2023-02-05T19:54:23.021Z,18.50
2023-02-05T19:56:51.198Z,19.42
2023-02-05T19:59:19.037Z,18.20
2023-02-05T20:01:46.788Z,17.67
2023-02-05T20:04:17.207Z,15.82
2023-02-05T20:06:46.389Z,14.68
2023-02-05T20:09:15.662Z,17.75
2023-02-05T20:11:45.023Z,18.35
2023-02-05T20:14:12.630Z,16.27
2023-02-05T20:16:40.603Z,14.68
2023-02-05T20:19:10.228Z,17.73
2023-02-05T20:21:38.713Z,17.88
2023-02-05T20:24:07.575Z,17.17
2023-02-05T20:26:36.060Z,17.88
2023-02-05T20:29:22.868Z,17.15
2023-02-05T20:31:51.983Z,19.48
2023-02-05T20:34:23.820Z,17.70
2023-02-05T20:36:53.891Z,19.60
2023-02-05T20:39:22.923Z,19.10
2023-02-05T20:41:51.491Z,19.30
2023-02-05T20:44:19.238Z,18.73
2023-02-05T20:46:47.071Z,19.38
2023-02-05T20:49:15.808Z,19.15
2023-02-05T20:51:43.564Z,19.48
2023-02-05T20:54:11.485Z,18.63
2023-02-05T20:56:39.402Z,19.50
2023-02-05T20:59:07.730Z,18.40
2023-02-05T21:01:36.404Z,18.50
2023-02-05T21:04:04.626Z,19.58
2023-02-05T21:06:34.196Z,17.23
2023-02-05T21:09:01.986Z,18.10
2023-02-05T21:11:30.163Z,16.77
2023-02-05T21:13:58.812Z,17.50
2023-02-05T21:16:27.595Z,16.70
2023-02-05T21:18:55.344Z,16.58
2023-02-05T21:21:27.737Z,16.90
2023-02-05T21:23:57.084Z,17.30
2023-02-05T21:26:29.440Z,18.15
2023-02-05T21:29:01.626Z,17.17
2023-02-05T21:31:36.157Z,16.20
2023-02-05T21:34:04.654Z,17.10
2023-02-05T21:36:33.550Z,17.20
2023-02-05T21:39:01.179Z,17.30
2023-02-05T21:41:28.942Z,17.48
2023-02-05T21:43:59.112Z,16.20
2023-02-05T21:46:29.420Z,15.50
2023-02-05T21:48:58.229Z,18.00
2023-02-05T21:51:28.079Z,19.25
2023-02-05T21:53:58.777Z,15.18
2023-02-05T21:56:29.353Z,18.85
2023-02-05T21:58:57.223Z,16.45
2023-02-05T22:01:26.810Z,18.50
2023-02-05T22:04:00.709Z,19.60
2023-02-05T22:06:30.505Z,21.20
2023-02-05T22:08:59.296Z,16.98
2023-02-05T22:11:27.016Z,18.10
2023-02-05T22:13:55.116Z,17.58
2023-02-05T22:16:24.425Z,15.57
2023-02-05T22:18:53.269Z,15.30
2023-02-05T22:21:23.121Z,13.88
2023-02-05T22:23:52.036Z,14.30
2023-02-05T22:26:24.062Z,14.18
2023-02-05T22:28:52.323Z,14.05
2023-02-05T22:31:20.533Z,14.77
2023-02-05T22:33:49.307Z,14.50
2023-02-05T22:36:18.787Z,13.60
2023-02-05T22:38:46.571Z,13.68
2023-02-05T22:41:16.809Z,14.30
2023-02-05T22:43:44.747Z,9.93
2023-02-05T22:46:14.155Z,12.52
2023-02-05T22:48:43.136Z,11.77
2023-02-05T22:51:14.008Z,14.18
2023-02-05T22:53:41.897Z,14.75
2023-02-05T22:56:12.729Z,12.32
2023-02-05T22:58:41.650Z,16.13
2023-02-05T23:01:26.025Z,16.80
2023-02-05T23:03:53.791Z,16.25
2023-02-05T23:06:23.571Z,16.20
2023-02-05T23:08:59.156Z,15.80
2023-02-05T23:11:27.637Z,18.27
2023-02-05T23:13:56.301Z,15.63
2023-02-05T23:16:26.118Z,14.90
2023-02-05T23:18:56.299Z,13.65
2023-02-05T23:21:24.934Z,12.45
2023-02-05T23:23:52.994Z,14.75
2023-02-05T23:26:22.300Z,14.07
2023-02-05T23:28:49.951Z,14.68
2023-02-05T23:31:17.829Z,15.00
2023-02-05T23:33:45.474Z,15.35
2023-02-05T23:36:13.247Z,14.55
2023-02-05T23:38:40.904Z,15.52
2023-02-05T23:41:08.672Z,15.52
2023-02-05T23:43:36.922Z,14.63
2023-02-05T23:46:05.367Z,13.85
2023-02-05T23:48:33.381Z,13.63
2023-02-05T23:51:01.071Z,13.20
2023-02-05T23:53:28.654Z,10.98
2023-02-05T23:55:56.346Z,14.00
2023-02-05T23:58:26.147Z,12.48
